Seneca, Illinois
Current Conditions -  °F | °C
As of 9:55 AM on Tuesday 21 Oct 2014 (Local Time) from KC09 Reporting Station
Scattered Clouds Scattered Clouds  
Wind Chill: 53°   Ceiling: Unl
Heat Index: 53°   Visibility: 10mi
Dew Point: 39°   Wind: 5mph
Humidity: 60%   Direction: 30°NNE
Pressure: 30.16"   Gusts: NA
Location:  41.31°N, 88.61°W
Report Text: KC09 211455Z AUTO 03004KT 10SM SCT034 12/04 A3016 RMK AO2 T01150039
Loading
Personal Weather Stations






























Interactive Weather Map
Tropical Storm Tracking
New forecast layout! Learn more

10-Day Weather Forecast

Advertisements
Track Severe Weather on mobile